sensor_id;sensor_type;location;lat;lon;timestamp;pressure;altitude;pressure_sealevel;temperature;humidity
6413;BME280;3239;48.714;9.472;2023-05-19T00:01:09;98637.41;;;13.06;100.00
6413;BME280;3239;48.714;9.472;2023-05-19T00:03:36;98629.78;;;12.99;100.00
6413;BME280;3239;48.714;9.472;2023-05-19T00:06:06;98634.34;;;13.09;100.00
6413;BME280;3239;48.714;9.472;2023-05-19T00:08:37;98634.66;;;13.06;100.00
6413;BME280;3239;48.714;9.472;2023-05-19T00:11:03;98638.09;;;12.93;100.00
6413;BME280;3239;48.714;9.472;2023-05-19T00:13:30;98635.88;;;12.92;100.00
6413;BME280;3239;48.714;9.472;2023-05-19T00:15:56;98627.56;;;12.97;100.00
6413;BME280;3239;48.714;9.472;2023-05-19T00:18:21;98631.44;;;12.89;100.00
6413;BME280;3239;48.714;9.472;2023-05-19T00:20:48;98629.03;;;12.98;100.00
6413;BME280;3239;48.714;9.472;2023-05-19T00:23:14;98633.13;;;12.92;100.00
6413;BME280;3239;48.714;9.472;2023-05-19T00:25:39;98625.72;;;12.87;100.00
6413;BME280;3239;48.714;9.472;2023-05-19T00:28:05;98621.63;;;12.80;100.00
6413;BME280;3239;48.714;9.472;2023-05-19T00:30:31;98631.53;;;12.83;100.00
6413;BME280;3239;48.714;9.472;2023-05-19T00:32:57;98627.63;;;12.79;100.00
6413;BME280;3239;48.714;9.472;2023-05-19T00:35:23;98633.56;;;12.83;100.00
6413;BME280;3239;48.714;9.472;2023-05-19T00:37:49;98631.84;;;12.80;100.00
6413;BME280;3239;48.714;9.472;2023-05-19T00:40:15;98632.91;;;12.77;100.00
6413;BME280;3239;48.714;9.472;2023-05-19T00:42:41;98620.53;;;12.70;100.00
6413;BME280;3239;48.714;9.472;2023-05-19T00:45:07;98619.06;;;12.69;100.00
6413;BME280;3239;48.714;9.472;2023-05-19T00:47:33;98620.00;;;12.72;100.00
6413;BME280;3239;48.714;9.472;2023-05-19T00:49:59;98617.06;;;12.83;100.00
6413;BME280;3239;48.714;9.472;2023-05-19T00:52:26;98620.31;;;12.68;100.00
6413;BME280;3239;48.714;9.472;2023-05-19T00:54:52;98626.66;;;12.63;100.00
6413;BME280;3239;48.714;9.472;2023-05-19T00:57:20;98623.94;;;12.76;100.00
6413;BME280;3239;48.714;9.472;2023-05-19T00:59:47;98623.94;;;12.89;100.00
6413;BME280;3239;48.714;9.472;2023-05-19T01:02:13;98620.31;;;12.68;100.00
6413;BME280;3239;48.714;9.472;2023-05-19T01:04:39;98616.94;;;12.62;100.00
6413;BME280;3239;48.714;9.472;2023-05-19T01:07:06;98624.31;;;12.54;100.00
6413;BME280;3239;48.714;9.472;2023-05-19T01:09:32;98606.03;;;12.57;100.00
6413;BME280;3239;48.714;9.472;2023-05-19T01:11:59;98610.06;;;12.69;100.00
6413;BME280;3239;48.714;9.472;2023-05-19T01:14:27;98606.25;;;12.72;100.00
6413;BME280;3239;48.714;9.472;2023-05-19T01:17:00;98614.50;;;12.72;100.00
6413;BME280;3239;48.714;9.472;2023-05-19T01:19:56;98615.53;;;12.56;100.00
6413;BME280;3239;48.714;9.472;2023-05-19T01:23:17;98601.72;;;12.61;100.00
6413;BME280;3239;48.714;9.472;2023-05-19T01:29:02;98601.03;;;12.42;100.00
6413;BME280;3239;48.714;9.472;2023-05-19T01:31:32;98616.88;;;12.36;100.00
6413;BME280;3239;48.714;9.472;2023-05-19T01:34:00;98619.56;;;12.55;100.00
6413;BME280;3239;48.714;9.472;2023-05-19T01:36:30;98614.03;;;12.42;100.00
6413;BME280;3239;48.714;9.472;2023-05-19T01:38:58;98616.78;;;12.42;100.00
6413;BME280;3239;48.714;9.472;2023-05-19T01:41:25;98613.28;;;12.41;100.00
6413;BME280;3239;48.714;9.472;2023-05-19T01:43:53;98626.72;;;12.45;100.00
6413;BME280;3239;48.714;9.472;2023-05-19T01:46:20;98625.56;;;12.40;100.00
6413;BME280;3239;48.714;9.472;2023-05-19T01:48:46;98620.81;;;12.41;100.00
6413;BME280;3239;48.714;9.472;2023-05-19T01:51:12;98621.97;;;12.45;100.00
6413;BME280;3239;48.714;9.472;2023-05-19T01:53:38;98619.53;;;12.42;100.00
6413;BME280;3239;48.714;9.472;2023-05-19T01:56:05;98620.28;;;12.42;100.00
6413;BME280;3239;48.714;9.472;2023-05-19T01:58:51;98621.06;;;12.24;100.00
6413;BME280;3239;48.714;9.472;2023-05-19T02:04:16;98618.53;;;12.26;100.00
6413;BME280;3239;48.714;9.472;2023-05-19T02:07:02;98622.28;;;12.42;100.00
6413;BME280;3239;48.714;9.472;2023-05-19T02:09:43;98613.97;;;12.16;100.00
6413;BME280;3239;48.714;9.472;2023-05-19T02:12:27;98616.91;;;12.05;100.00
6413;BME280;3239;48.714;9.472;2023-05-19T02:15:20;98610.97;;;12.01;100.00
6413;BME280;3239;48.714;9.472;2023-05-19T02:17:47;98607.88;;;11.91;100.00
6413;BME280;3239;48.714;9.472;2023-05-19T02:20:16;98615.94;;;12.02;100.00
6413;BME280;3239;48.714;9.472;2023-05-19T02:22:43;98612.09;;;11.92;100.00
6413;BME280;3239;48.714;9.472;2023-05-19T02:25:10;98614.72;;;11.85;100.00
6413;BME280;3239;48.714;9.472;2023-05-19T02:27:37;98616.41;;;11.88;100.00
6413;BME280;3239;48.714;9.472;2023-05-19T02:30:04;98615.66;;;11.87;100.00
6413;BME280;3239;48.714;9.472;2023-05-19T02:32:31;98611.97;;;11.85;100.00
6413;BME280;3239;48.714;9.472;2023-05-19T02:34:57;98618.06;;;11.78;100.00
6413;BME280;3239;48.714;9.472;2023-05-19T02:37:23;98614.25;;;11.81;100.00
6413;BME280;3239;48.714;9.472;2023-05-19T02:39:49;98614.41;;;11.70;100.00
6413;BME280;3239;48.714;9.472;2023-05-19T02:42:15;98614.66;;;11.72;100.00
6413;BME280;3239;48.714;9.472;2023-05-19T02:44:42;98609.53;;;11.81;100.00
6413;BME280;3239;48.714;9.472;2023-05-19T02:47:08;98610.94;;;11.69;100.00
6413;BME280;3239;48.714;9.472;2023-05-19T02:49:34;98611.22;;;11.66;100.00
6413;BME280;3239;48.714;9.472;2023-05-19T02:52:03;98612.84;;;11.56;100.00
6413;BME280;3239;48.714;9.472;2023-05-19T02:54:30;98619.44;;;11.47;100.00
6413;BME280;3239;48.714;9.472;2023-05-19T02:56:56;98606.69;;;11.50;100.00
6413;BME280;3239;48.714;9.472;2023-05-19T02:59:23;98613.22;;;11.47;100.00
6413;BME280;3239;48.714;9.472;2023-05-19T03:01:49;98609.50;;;11.44;100.00
6413;BME280;3239;48.714;9.472;2023-05-19T03:04:15;98611.19;;;11.47;100.00
6413;BME280;3239;48.714;9.472;2023-05-19T03:06:44;98599.72;;;11.49;100.00
6413;BME280;3239;48.714;9.472;2023-05-19T03:09:12;98602.53;;;11.43;100.00
6413;BME280;3239;48.714;9.472;2023-05-19T03:11:38;98599.66;;;11.54;100.00
6413;BME280;3239;48.714;9.472;2023-05-19T03:14:04;98608.25;;;11.45;100.00
6413;BME280;3239;48.714;9.472;2023-05-19T03:16:30;98601.06;;;11.61;100.00
6413;BME280;3239;48.714;9.472;2023-05-19T03:18:56;98598.31;;;11.61;100.00
6413;BME280;3239;48.714;9.472;2023-05-19T03:21:22;98614.84;;;11.55;100.00
6413;BME280;3239;48.714;9.472;2023-05-19T03:23:47;98609.16;;;11.72;100.00
6413;BME280;3239;48.714;9.472;2023-05-19T03:26:13;98609.88;;;11.54;100.00
6413;BME280;3239;48.714;9.472;2023-05-19T03:28:39;98609.66;;;11.52;100.00
6413;BME280;3239;48.714;9.472;2023-05-19T03:31:04;98610.72;;;11.67;100.00
6413;BME280;3239;48.714;9.472;2023-05-19T03:33:30;98610.13;;;11.56;100.00
6413;BME280;3239;48.714;9.472;2023-05-19T03:35:56;98603.28;;;11.62;100.00
6413;BME280;3239;48.714;9.472;2023-05-19T03:38:22;98613.06;;;11.58;100.00
6413;BME280;3239;48.714;9.472;2023-05-19T03:40:48;98617.06;;;11.57;100.00
6413;BME280;3239;48.714;9.472;2023-05-19T03:43:13;98614.19;;;11.49;100.00
6413;BME280;3239;48.714;9.472;2023-05-19T03:45:41;98613.88;;;11.53;100.00
6413;BME280;3239;48.714;9.472;2023-05-19T03:48:07;98618.69;;;11.28;100.00
6413;BME280;3239;48.714;9.472;2023-05-19T03:50:32;98617.22;;;11.27;100.00
6413;BME280;3239;48.714;9.472;2023-05-19T03:52:59;98630.41;;;11.29;100.00
6413;BME280;3239;48.714;9.472;2023-05-19T03:55:25;98630.41;;;11.29;100.00
6413;BME280;3239;48.714;9.472;2023-05-19T03:57:54;98628.53;;;11.18;100.00
6413;BME280;3239;48.714;9.472;2023-05-19T04:00:21;98630.84;;;11.33;100.00
6413;BME280;3239;48.714;9.472;2023-05-19T04:02:46;98638.06;;;11.36;100.00
6413;BME280;3239;48.714;9.472;2023-05-19T04:05:13;98642.28;;;11.37;100.00
6413;BME280;3239;48.714;9.472;2023-05-19T04:07:39;98632.47;;;11.41;100.00
6413;BME280;3239;48.714;9.472;2023-05-19T04:10:05;98622.78;;;11.40;100.00
6413;BME280;3239;48.714;9.472;2023-05-19T04:12:31;98628.47;;;11.42;100.00
6413;BME280;3239;48.714;9.472;2023-05-19T04:14:57;98623.94;;;11.45;100.00
6413;BME280;3239;48.714;9.472;2023-05-19T04:17:23;98633.44;;;11.44;100.00
6413;BME280;3239;48.714;9.472;2023-05-19T04:19:52;98632.88;;;11.51;100.00
6413;BME280;3239;48.714;9.472;2023-05-19T04:22:17;98630.88;;;11.51;100.00
6413;BME280;3239;48.714;9.472;2023-05-19T04:24:43;98633.78;;;11.59;100.00
6413;BME280;3239;48.714;9.472;2023-05-19T04:27:10;98634.97;;;11.63;100.00
6413;BME280;3239;48.714;9.472;2023-05-19T04:29:39;98625.50;;;11.64;100.00
6413;BME280;3239;48.714;9.472;2023-05-19T04:32:06;98633.47;;;11.62;100.00
6413;BME280;3239;48.714;9.472;2023-05-19T04:34:33;98641.16;;;11.69;100.00
6413;BME280;3239;48.714;9.472;2023-05-19T04:37:00;98635.66;;;11.69;100.00
6413;BME280;3239;48.714;9.472;2023-05-19T04:39:26;98637.72;;;11.63;100.00
6413;BME280;3239;48.714;9.472;2023-05-19T04:41:52;98645.13;;;11.68;100.00
6413;BME280;3239;48.714;9.472;2023-05-19T04:44:21;98640.69;;;11.65;100.00
6413;BME280;3239;48.714;9.472;2023-05-19T04:46:46;98645.13;;;11.68;100.00
6413;BME280;3239;48.714;9.472;2023-05-19T04:49:12;98639.63;;;11.87;100.00
6413;BME280;3239;48.714;9.472;2023-05-19T04:51:38;98640.06;;;11.91;100.00
6413;BME280;3239;48.714;9.472;2023-05-19T04:54:09;98640.31;;;11.93;100.00
6413;BME280;3239;48.714;9.472;2023-05-19T04:56:35;98636.88;;;11.87;100.00
6413;BME280;3239;48.714;9.472;2023-05-19T04:59:01;98634.50;;;11.96;100.00
6413;BME280;3239;48.714;9.472;2023-05-19T05:01:26;98624.69;;;12.01;100.00
6413;BME280;3239;48.714;9.472;2023-05-19T05:03:53;98631.94;;;12.17;100.00
6413;BME280;3239;48.714;9.472;2023-05-19T05:06:20;98632.47;;;12.15;100.00
6413;BME280;3239;48.714;9.472;2023-05-19T05:08:48;98633.94;;;12.16;100.00
6413;BME280;3239;48.714;9.472;2023-05-19T05:11:14;98638.66;;;12.34;100.00
6413;BME280;3239;48.714;9.472;2023-05-19T05:13:40;98637.06;;;12.39;100.00
6413;BME280;3239;48.714;9.472;2023-05-19T05:16:07;98629.25;;;12.43;100.00
6413;BME280;3239;48.714;9.472;2023-05-19T05:18:34;98618.78;;;12.41;100.00
6413;BME280;3239;48.714;9.472;2023-05-19T05:21:01;98628.88;;;12.52;100.00
6413;BME280;3239;48.714;9.472;2023-05-19T05:23:28;98625.34;;;12.38;100.00
6413;BME280;3239;48.714;9.472;2023-05-19T05:25:54;98620.06;;;12.53;100.00
6413;BME280;3239;48.714;9.472;2023-05-19T05:28:19;98619.56;;;12.55;100.00
6413;BME280;3239;48.714;9.472;2023-05-19T05:30:45;98627.59;;;12.66;100.00
6413;BME280;3239;48.714;9.472;2023-05-19T05:33:11;98619.69;;;12.75;100.00
6413;BME280;3239;48.714;9.472;2023-05-19T05:35:37;98614.41;;;12.90;100.00
6413;BME280;3239;48.714;9.472;2023-05-19T05:38:03;98610.94;;;12.90;100.00
6413;BME280;3239;48.714;9.472;2023-05-19T05:40:29;98611.16;;;13.05;100.00
6413;BME280;3239;48.714;9.472;2023-05-19T05:42:55;98619.53;;;13.12;100.00
6413;BME280;3239;48.714;9.472;2023-05-19T05:45:24;98618.69;;;13.17;100.00
6413;BME280;3239;48.714;9.472;2023-05-19T05:47:51;98625.75;;;13.26;100.00
6413;BME280;3239;48.714;9.472;2023-05-19T05:50:17;98615.00;;;13.48;100.00
6413;BME280;3239;48.714;9.472;2023-05-19T05:52:47;98614.00;;;13.38;100.00
6413;BME280;3239;48.714;9.472;2023-05-19T05:55:14;98609.34;;;13.67;100.00
6413;BME280;3239;48.714;9.472;2023-05-19T05:57:41;98614.81;;;13.46;100.00
6413;BME280;3239;48.714;9.472;2023-05-19T06:00:08;98607.00;;;13.71;100.00
6413;BME280;3239;48.714;9.472;2023-05-19T06:02:44;98612.50;;;13.84;100.00
6413;BME280;3239;48.714;9.472;2023-05-19T06:05:13;98618.97;;;13.73;100.00
6413;BME280;3239;48.714;9.472;2023-05-19T06:07:40;98615.00;;;13.95;100.00
6413;BME280;3239;48.714;9.472;2023-05-19T06:10:06;98605.72;;;14.05;100.00
6413;BME280;3239;48.714;9.472;2023-05-19T06:12:33;98600.78;;;14.24;100.00
6413;BME280;3239;48.714;9.472;2023-05-19T06:15:01;98604.09;;;14.71;100.00
6413;BME280;3239;48.714;9.472;2023-05-19T06:17:27;98601.22;;;15.12;100.00
6413;BME280;3239;48.714;9.472;2023-05-19T06:19:53;98603.06;;;14.33;100.00
6413;BME280;3239;48.714;9.472;2023-05-19T06:22:19;98605.81;;;14.33;100.00
6413;BME280;3239;48.714;9.472;2023-05-19T06:24:44;98601.22;;;14.15;100.00
6413;BME280;3239;48.714;9.472;2023-05-19T06:27:10;98610.97;;;13.96;100.00
6413;BME280;3239;48.714;9.472;2023-05-19T06:29:36;98604.91;;;13.97;100.00
6413;BME280;3239;48.714;9.472;2023-05-19T06:32:02;98603.13;;;14.20;100.00
6413;BME280;3239;48.714;9.472;2023-05-19T06:34:27;98611.44;;;14.07;100.00
6413;BME280;3239;48.714;9.472;2023-05-19T06:36:53;98609.91;;;13.99;100.00
6413;BME280;3239;48.714;9.472;2023-05-19T06:39:19;98598.81;;;14.12;100.00
6413;BME280;3239;48.714;9.472;2023-05-19T06:41:45;98596.91;;;14.20;100.00
6413;BME280;3239;48.714;9.472;2023-05-19T06:44:10;98607.94;;;14.07;100.00
6413;BME280;3239;48.714;9.472;2023-05-19T06:46:36;98607.38;;;14.42;100.00
6413;BME280;3239;48.714;9.472;2023-05-19T06:49:02;98605.53;;;14.24;100.00
6413;BME280;3239;48.714;9.472;2023-05-19T06:51:27;98608.03;;;14.35;100.00
6413;BME280;3239;48.714;9.472;2023-05-19T06:53:53;98600.78;;;14.24;100.00
6413;BME280;3239;48.714;9.472;2023-05-19T06:56:19;98600.53;;;14.63;100.00
6413;BME280;3239;48.714;9.472;2023-05-19T06:58:46;98591.88;;;14.87;100.00
6413;BME280;3239;48.714;9.472;2023-05-19T07:01:11;98600.97;;;15.03;100.00
6413;BME280;3239;48.714;9.472;2023-05-19T07:03:37;98604.44;;;14.96;100.00
6413;BME280;3239;48.714;9.472;2023-05-19T07:06:03;98604.53;;;14.83;100.00
6413;BME280;3239;48.714;9.472;2023-05-19T07:08:28;98603.41;;;14.78;100.00
6413;BME280;3239;48.714;9.472;2023-05-19T07:10:54;98608.78;;;15.19;100.00
6413;BME280;3239;48.714;9.472;2023-05-19T07:13:20;98589.78;;;14.80;100.00
6413;BME280;3239;48.714;9.472;2023-05-19T07:15:46;98594.66;;;14.39;100.00
6413;BME280;3239;48.714;9.472;2023-05-19T07:18:14;98603.38;;;14.30;100.00
6413;BME280;3239;48.714;9.472;2023-05-19T07:20:40;98606.63;;;14.41;100.00
6413;BME280;3239;48.714;9.472;2023-05-19T07:23:05;98610.94;;;14.78;100.00
6413;BME280;3239;48.714;9.472;2023-05-19T07:25:31;98602.28;;;14.53;100.00
6413;BME280;3239;48.714;9.472;2023-05-19T07:27:58;98607.22;;;14.47;100.00
6413;BME280;3239;48.714;9.472;2023-05-19T07:30:26;98597.06;;;14.42;100.00
6413;BME280;3239;48.714;9.472;2023-05-19T07:32:53;98592.41;;;14.58;100.00
6413;BME280;3239;48.714;9.472;2023-05-19T07:35:19;98591.19;;;14.66;100.00
6413;BME280;3239;48.714;9.472;2023-05-19T07:37:50;98586.69;;;14.56;100.00
6413;BME280;3239;48.714;9.472;2023-05-19T07:40:17;98593.72;;;14.64;100.00
6413;BME280;3239;48.714;9.472;2023-05-19T07:42:43;98588.19;;;14.85;100.00
6413;BME280;3239;48.714;9.472;2023-05-19T07:45:10;98588.53;;;14.81;100.00
6413;BME280;3239;48.714;9.472;2023-05-19T07:47:36;98580.56;;;14.70;100.00
6413;BME280;3239;48.714;9.472;2023-05-19T07:50:02;98594.31;;;14.98;100.00
6413;BME280;3239;48.714;9.472;2023-05-19T07:52:28;98590.31;;;15.07;100.00
6413;BME280;3239;48.714;9.472;2023-05-19T07:54:54;98580.66;;;15.21;100.00
6413;BME280;3239;48.714;9.472;2023-05-19T07:57:20;98593.31;;;15.16;100.00
6413;BME280;3239;48.714;9.472;2023-05-19T07:59:46;98587.84;;;14.60;100.00
6413;BME280;3239;48.714;9.472;2023-05-19T08:02:12;98583.00;;;14.81;100.00
6413;BME280;3239;48.714;9.472;2023-05-19T08:04:38;98587.91;;;15.03;100.00
6413;BME280;3239;48.714;9.472;2023-05-19T08:07:03;98576.47;;;14.99;100.00
6413;BME280;3239;48.714;9.472;2023-05-19T08:09:29;98586.13;;;15.13;100.00
6413;BME280;3239;48.714;9.472;2023-05-19T08:11:55;98580.28;;;15.24;100.00
6413;BME280;3239;48.714;9.472;2023-05-19T08:14:20;98580.66;;;15.21;100.00
6413;BME280;3239;48.714;9.472;2023-05-19T08:16:48;98573.59;;;15.05;100.00
6413;BME280;3239;48.714;9.472;2023-05-19T08:19:14;98572.47;;;15.36;100.00
6413;BME280;3239;48.714;9.472;2023-05-19T08:21:39;98577.41;;;15.37;100.00
6413;BME280;3239;48.714;9.472;2023-05-19T08:24:07;98566.41;;;15.45;100.00
6413;BME280;3239;48.714;9.472;2023-05-19T08:26:33;98575.81;;;15.49;100.00
6413;BME280;3239;48.714;9.472;2023-05-19T08:28:59;98572.38;;;15.21;100.00
6413;BME280;3239;48.714;9.472;2023-05-19T08:31:25;98573.25;;;15.16;100.00
6413;BME280;3239;48.714;9.472;2023-05-19T08:33:51;98566.28;;;14.87;100.00
6413;BME280;3239;48.714;9.472;2023-05-19T08:36:17;98570.47;;;14.80;100.00
6413;BME280;3239;48.714;9.472;2023-05-19T08:38:43;98564.22;;;15.15;100.00
6413;BME280;3239;48.714;9.472;2023-05-19T08:41:09;98561.38;;;14.65;100.00
6413;BME280;3239;48.714;9.472;2023-05-19T08:43:36;98560.22;;;14.32;100.00
6413;BME280;3239;48.714;9.472;2023-05-19T08:46:03;98572.25;;;14.42;100.00
6413;BME280;3239;48.714;9.472;2023-05-19T08:48:29;98568.50;;;14.88;100.00
6413;BME280;3239;48.714;9.472;2023-05-19T08:51:32;98564.69;;;14.91;100.00
6413;BME280;3239;48.714;9.472;2023-05-19T08:54:14;98564.38;;;15.02;100.00
6413;BME280;3239;48.714;9.472;2023-05-19T08:56:43;98568.38;;;14.94;100.00
6413;BME280;3239;48.714;9.472;2023-05-19T08:59:10;98566.69;;;14.91;100.00
6413;BME280;3239;48.714;9.472;2023-05-19T09:01:36;98568.38;;;14.94;100.00
6413;BME280;3239;48.714;9.472;2023-05-19T09:04:04;98561.88;;;15.19;100.00
6413;BME280;3239;48.714;9.472;2023-05-19T09:06:30;98559.47;;;15.16;100.00
6413;BME280;3239;48.714;9.472;2023-05-19T09:08:57;98552.03;;;15.39;100.00
6413;BME280;3239;48.714;9.472;2023-05-19T09:11:23;98553.66;;;14.91;100.00
6413;BME280;3239;48.714;9.472;2023-05-19T09:13:49;98551.88;;;15.44;100.00
6413;BME280;3239;48.714;9.472;2023-05-19T09:16:15;98554.66;;;15.16;100.00
6413;BME280;3239;48.714;9.472;2023-05-19T09:18:56;98553.13;;;15.36;100.00
6413;BME280;3239;48.714;9.472;2023-05-19T09:21:31;98553.91;;;15.51;100.00
6413;BME280;3239;48.714;9.472;2023-05-19T09:24:05;98547.03;;;15.37;100.00
6413;BME280;3239;48.714;9.472;2023-05-19T09:26:41;98543.66;;;15.24;100.00
6413;BME280;3239;48.714;9.472;2023-05-19T09:29:16;98552.97;;;15.41;100.00
6413;BME280;3239;48.714;9.472;2023-05-19T09:31:52;98557.41;;;15.44;100.00
6413;BME280;3239;48.714;9.472;2023-05-19T09:34:19;98552.44;;;15.50;100.00
6413;BME280;3239;48.714;9.472;2023-05-19T09:36:49;98550.28;;;15.71;100.00
6413;BME280;3239;48.714;9.472;2023-05-19T09:39:20;98548.09;;;15.77;100.00
6413;BME280;3239;48.714;9.472;2023-05-19T09:41:50;98549.56;;;15.86;100.00
6413;BME280;3239;48.714;9.472;2023-05-19T09:46:53;98550.38;;;15.43;100.00
6413;BME280;3239;48.714;9.472;2023-05-19T09:49:28;98545.16;;;15.32;100.00
6413;BME280;3239;48.714;9.472;2023-05-19T09:52:01;98543.25;;;15.20;100.00
6413;BME280;3239;48.714;9.472;2023-05-19T09:54:29;98544.28;;;15.37;100.00
6413;BME280;3239;48.714;9.472;2023-05-19T09:57:01;98543.03;;;15.53;100.00
6413;BME280;3239;48.714;9.472;2023-05-19T09:59:29;98538.31;;;15.76;100.00
6413;BME280;3239;48.714;9.472;2023-05-19T10:01:57;98537.38;;;15.59;100.00
6413;BME280;3239;48.714;9.472;2023-05-19T10:04:28;98528.88;;;15.57;100.00
6413;BME280;3239;48.714;9.472;2023-05-19T10:06:57;98526.84;;;15.57;100.00
6413;BME280;3239;48.714;9.472;2023-05-19T10:09:29;98531.84;;;15.08;100.00
6413;BME280;3239;48.714;9.472;2023-05-19T10:11:57;98537.56;;;15.18;100.00
6413;BME280;3239;48.714;9.472;2023-05-19T10:14:27;98539.56;;;15.17;100.00
6413;BME280;3239;48.714;9.472;2023-05-19T10:16:56;98529.81;;;15.16;100.00
6413;BME280;3239;48.714;9.472;2023-05-19T10:19:24;98543.41;;;15.07;100.00
6413;BME280;3239;48.714;9.472;2023-05-19T10:21:51;98538.31;;;15.18;100.00
6413;BME280;3239;48.714;9.472;2023-05-19T10:24:17;98548.03;;;15.12;100.00
6413;BME280;3239;48.714;9.472;2023-05-19T10:26:54;98548.78;;;15.12;100.00
6413;BME280;3239;48.714;9.472;2023-05-19T10:29:44;98536.81;;;15.17;100.00
6413;BME280;3239;48.714;9.472;2023-05-19T10:32:19;98539.22;;;15.13;100.00
6413;BME280;3239;48.714;9.472;2023-05-19T10:41:10;98533.84;;;15.08;100.00
6413;BME280;3239;48.714;9.472;2023-05-19T10:44:08;98535.75;;;14.85;100.00
6413;BME280;3239;48.714;9.472;2023-05-19T10:46:40;98548.59;;;15.18;100.00
6413;BME280;3239;48.714;9.472;2023-05-19T10:49:07;98527.41;;;14.70;100.00
6413;BME280;3239;48.714;9.472;2023-05-19T10:51:33;98538.53;;;14.85;100.00
6413;BME280;3239;48.714;9.472;2023-05-19T10:54:07;98536.34;;;14.91;100.00
6413;BME280;3239;48.714;9.472;2023-05-19T10:56:37;98539.16;;;14.98;100.00
6413;BME280;3239;48.714;9.472;2023-05-19T10:59:06;98530.41;;;15.22;100.00
6413;BME280;3239;48.714;9.472;2023-05-19T11:01:35;98531.50;;;15.19;100.00
6413;BME280;3239;48.714;9.472;2023-05-19T11:04:08;98522.63;;;15.06;100.00
6413;BME280;3239;48.714;9.472;2023-05-19T11:06:38;98524.53;;;15.26;100.00
6413;BME280;3239;48.714;9.472;2023-05-19T11:09:17;98523.84;;;15.33;100.00
6413;BME280;3239;48.714;9.472;2023-05-19T11:11:48;98533.28;;;15.02;100.00
6413;BME280;3239;48.714;9.472;2023-05-19T11:14:22;98530.13;;;15.33;100.00
6413;BME280;3239;48.714;9.472;2023-05-19T11:16:57;98529.44;;;15.05;100.00
6413;BME280;3239;48.714;9.472;2023-05-19T11:19:28;98525.75;;;15.02;100.00
6413;BME280;3239;48.714;9.472;2023-05-19T11:21:55;98532.13;;;14.90;100.00
6413;BME280;3239;48.714;9.472;2023-05-19T11:27:20;98529.56;;;14.99;100.00
6413;BME280;3239;48.714;9.472;2023-05-19T11:29:48;98532.91;;;15.05;100.00
6413;BME280;3239;48.714;9.472;2023-05-19T11:32:14;98531.78;;;15.01;100.00
6413;BME280;3239;48.714;9.472;2023-05-19T11:34:40;98531.09;;;15.08;100.00
6413;BME280;3239;48.714;9.472;2023-05-19T11:37:07;98541.16;;;14.98;100.00
6413;BME280;3239;48.714;9.472;2023-05-19T11:39:34;98536.00;;;14.94;100.00
6413;BME280;3239;48.714;9.472;2023-05-19T11:42:00;98536.78;;;15.02;100.00
6413;BME280;3239;48.714;9.472;2023-05-19T11:44:26;98535.31;;;14.73;100.00
6413;BME280;3239;48.714;9.472;2023-05-19T11:46:51;98536.06;;;15.09;100.00
6413;BME280;3239;48.714;9.472;2023-05-19T11:49:17;98535.81;;;15.35;100.00
6413;BME280;3239;48.714;9.472;2023-05-19T11:51:44;98529.19;;;15.38;100.00
6413;BME280;3239;48.714;9.472;2023-05-19T11:54:11;98531.44;;;15.55;100.00
6413;BME280;3239;48.714;9.472;2023-05-19T11:56:43;98525.56;;;15.58;100.00
6413;BME280;3239;48.714;9.472;2023-05-19T11:59:09;98519.44;;;15.37;100.00
6413;BME280;3239;48.714;9.472;2023-05-19T12:01:35;98518.50;;;15.35;100.00
6413;BME280;3239;48.714;9.472;2023-05-19T12:04:06;98526.72;;;15.20;100.00
6413;BME280;3239;48.714;9.472;2023-05-19T12:06:33;98516.00;;;15.09;100.00
6413;BME280;3239;48.714;9.472;2023-05-19T12:08:59;98518.53;;;15.42;100.00
6413;BME280;3239;48.714;9.472;2023-05-19T12:11:27;98521.59;;;15.31;100.00
6413;BME280;3239;48.714;9.472;2023-05-19T12:14:00;98523.31;;;14.99;100.00
6413;BME280;3239;48.714;9.472;2023-05-19T12:16:33;98520.53;;;14.91;100.00
6413;BME280;3239;48.714;9.472;2023-05-19T12:19:00;98528.50;;;15.02;100.00
6413;BME280;3239;48.714;9.472;2023-05-19T12:21:29;98516.22;;;15.18;100.00
6413;BME280;3239;48.714;9.472;2023-05-19T12:23:55;98513.81;;;15.07;100.00
6413;BME280;3239;48.714;9.472;2023-05-19T12:26:21;98520.38;;;14.97;100.00
6413;BME280;3239;48.714;9.472;2023-05-19T12:28:48;98517.72;;;15.27;100.00
6413;BME280;3239;48.714;9.472;2023-05-19T12:31:16;98517.56;;;15.32;100.00
6413;BME280;3239;48.714;9.472;2023-05-19T12:33:42;98523.88;;;14.97;100.00
6413;BME280;3239;48.714;9.472;2023-05-19T12:36:09;98523.22;;;15.19;100.00
6413;BME280;3239;48.714;9.472;2023-05-19T12:38:35;98530.69;;;15.39;100.00
6413;BME280;3239;48.714;9.472;2023-05-19T12:41:05;98516.31;;;15.41;100.00
6413;BME280;3239;48.714;9.472;2023-05-19T12:43:31;98527.03;;;15.09;100.00
6413;BME280;3239;48.714;9.472;2023-05-19T12:45:58;98523.13;;;14.97;100.00
6413;BME280;3239;48.714;9.472;2023-05-19T12:48:33;98523.84;;;14.90;100.00
6413;BME280;3239;48.714;9.472;2023-05-19T12:50:59;98524.44;;;15.03;100.00
6413;BME280;3239;48.714;9.472;2023-05-19T12:53:25;98520.59;;;15.06;100.00
6413;BME280;3239;48.714;9.472;2023-05-19T12:55:52;98522.50;;;14.83;100.00
6413;BME280;3239;48.714;9.472;2023-05-19T12:58:18;98518.69;;;14.86;100.00
6413;BME280;3239;48.714;9.472;2023-05-19T13:00:45;98512.59;;;15.31;100.00
6413;BME280;3239;48.714;9.472;2023-05-19T13:03:18;98513.00;;;15.35;100.00
6413;BME280;3239;48.714;9.472;2023-05-19T13:05:47;98512.31;;;15.06;100.00
6413;BME280;3239;48.714;9.472;2023-05-19T13:08:18;98514.63;;;14.87;100.00
6413;BME280;3239;48.714;9.472;2023-05-19T13:10:46;98519.69;;;15.11;100.00
6413;BME280;3239;48.714;9.472;2023-05-19T13:13:12;98510.72;;;15.18;100.00
6413;BME280;3239;48.714;9.472;2023-05-19T13:15:46;98514.06;;;15.32;100.00
6413;BME280;3239;48.714;9.472;2023-05-19T13:18:15;98511.38;;;15.39;100.00
6413;BME280;3239;48.714;9.472;2023-05-19T13:20:43;98501.00;;;15.32;100.00
6413;BME280;3239;48.714;9.472;2023-05-19T13:23:10;98511.41;;;15.69;100.00
6413;BME280;3239;48.714;9.472;2023-05-19T13:25:37;98511.59;;;15.64;100.00
6413;BME280;3239;48.714;9.472;2023-05-19T13:28:03;98502.19;;;15.59;100.00
6413;BME280;3239;48.714;9.472;2023-05-19T13:30:35;98503.84;;;15.55;100.00
6413;BME280;3239;48.714;9.472;2023-05-19T13:33:01;98505.34;;;15.71;100.00